Time;durP1;ratioP1;P1;durP2;ratioP2;P2;SDS_P1;SDS_P2;PMS_P1;PMS_P2;Temp;Humidity;BMP_temperature;BMP_pressure;BME280_temperature;BME280_humidity;BME280_pressure;Samples;Min_cycle;Max_cycle;Signal;HPM_P1;HPM_P2
2022/06/10 00:00:14;;;;;;;13.23;6.20;;;;;;;11.16;100.00;100746.03;7399117;19;20393;-56
2022/06/10 00:02:45;;;;;;;11.33;6.37;;;;;;;11.13;100.00;100751.06;7390500;19;20436;-56
2022/06/10 00:05:22;;;;;;;9.73;5.90;;;;;;;11.12;100.00;100751.88;7399765;19;20392;-58
2022/06/10 00:07:53;;;;;;;12.73;6.87;;;;;;;11.17;100.00;100758.09;7389515;19;20498;-56
2022/06/10 00:10:25;;;;;;;11.50;6.90;;;;;;;11.28;100.00;100748.19;7398902;19;20393;-55
2022/06/10 00:12:57;;;;;;;11.97;7.03;;;;;;;11.14;100.00;100745.09;7391788;19;20416;-59
2022/06/10 00:15:27;;;;;;;13.40;6.83;;;;;;;11.13;100.00;100753.63;7398865;19;20414;-58
2022/06/10 00:17:57;;;;;;;15.53;8.20;;;;;;;11.10;100.00;100745.78;7396826;19;20503;-55
2022/06/10 00:20:29;;;;;;;15.73;8.93;;;;;;;11.06;100.00;100741.31;7398461;19;20397;-57
2022/06/10 00:22:59;;;;;;;11.40;8.47;;;;;;;10.97;100.00;100741.81;7388163;19;20942;-59
2022/06/10 00:25:30;;;;;;;18.33;9.33;;;;;;;10.87;100.00;100739.72;7398556;19;20405;-56
2022/06/10 00:28:02;;;;;;;18.00;9.53;;;;;;;10.88;100.00;100732.00;7387693;19;20442;-58
2022/06/10 00:30:33;;;;;;;14.17;8.33;;;;;;;10.87;100.00;100737.13;7398364;19;20413;-58
2022/06/10 00:33:02;;;;;;;12.97;8.53;;;;;;;10.87;100.00;100721.63;7389858;19;20463;-53
2022/06/10 00:35:33;;;;;;;15.27;8.40;;;;;;;10.90;100.00;100714.91;7400995;19;20405;-58
2022/06/10 00:38:04;;;;;;;10.67;6.90;;;;;;;10.89;100.00;100696.75;7390735;19;20514;-59
2022/06/10 00:40:37;;;;;;;13.60;8.07;;;;;;;10.85;100.00;100676.81;7397718;19;20774;-59
2022/06/10 00:43:12;;;;;;;12.97;7.00;;;;;;;10.84;100.00;100667.31;7387970;19;20757;-57
2022/06/10 00:45:56;;;;;;;16.80;8.03;;;;;;;10.77;100.00;100656.75;7394518;19;20730;-56
2022/06/10 00:48:31;;;;;;;15.23;7.90;;;;;;;10.72;100.00;100637.59;7391310;19;20436;-57
2022/06/10 00:51:03;;;;;;;12.67;8.00;;;;;;;10.66;100.00;100632.22;7388120;19;20398;-54
2022/06/10 00:53:35;;;;;;;11.77;7.67;;;;;;;10.66;100.00;100620.19;7392613;19;20436;-55
2022/06/10 00:56:09;;;;;;;14.70;7.90;;;;;;;10.65;100.00;100618.44;7385624;19;20392;-57
2022/06/10 00:58:45;;;;;;;12.30;7.70;;;;;;;10.63;100.00;100604.63;7393745;19;20384;-56
2022/06/10 01:01:16;;;;;;;17.40;8.57;;;;;;;10.63;100.00;100602.03;7386379;19;20410;-56
2022/06/10 01:03:46;;;;;;;16.90;8.17;;;;;;;10.61;100.00;100588.16;7393020;19;20584;-55
2022/06/10 01:06:16;;;;;;;19.53;8.40;;;;;;;10.73;100.00;100581.72;7383735;19;20388;-58
2022/06/10 01:08:46;;;;;;;20.03;10.37;;;;;;;10.78;100.00;100578.50;7386946;19;20412;-56
2022/06/10 01:11:31;;;;;;;14.47;8.50;;;;;;;10.71;100.00;100568.75;7391795;19;20388;-59
2022/06/10 01:14:07;;;;;;;16.77;8.33;;;;;;;10.62;100.00;100558.97;7395554;19;20772;-60
2022/06/10 01:16:47;;;;;;;18.20;9.47;;;;;;;10.63;100.00;100549.53;7390591;19;20427;-57
2022/06/10 01:19:29;;;;;;;20.20;8.20;;;;;;;10.52;100.00;100551.72;7397078;19;20372;-57
2022/06/10 01:22:33;;;;;;;16.77;8.27;;;;;;;10.53;100.00;100538.00;7388955;19;20938;-57
2022/06/10 01:25:20;;;;;;;15.03;7.87;;;;;;;10.49;100.00;100530.94;7394510;19;20491;-56
2022/06/10 01:28:09;;;;;;;13.43;7.97;;;;;;;10.47;100.00;100511.97;7388145;19;20793;-53
2022/06/10 01:31:00;;;;;;;14.47;8.00;;;;;;;10.45;100.00;100529.94;7396534;19;20415;-63
2022/06/10 01:33:45;;;;;;;13.90;7.60;;;;;;;10.43;100.00;100525.53;7394733;19;20498;-57
2022/06/10 01:36:19;;;;;;;17.67;8.70;;;;;;;10.40;100.00;100503.94;7391252;19;20392;-57
2022/06/10 01:38:54;;;;;;;15.40;8.13;;;;;;;10.42;100.00;100498.88;7395170;19;20394;-58
2022/06/10 01:41:29;;;;;;;20.77;8.50;;;;;;;10.44;100.00;100491.19;7389738;19;20411;-58
2022/06/10 01:44:04;;;;;;;13.67;8.30;;;;;;;10.40;100.00;100500.47;7393975;19;20413;-56
2022/06/10 01:46:40;;;;;;;17.50;7.93;;;;;;;10.31;100.00;100506.16;7388829;19;20421;-57
2022/06/10 01:49:13;;;;;;;20.27;8.70;;;;;;;10.28;100.00;100506.06;7394080;19;20383;-57
2022/06/10 01:51:48;;;;;;;17.00;8.80;;;;;;;10.20;100.00;100507.47;7387396;19;20415;-56
2022/06/10 01:54:24;;;;;;;14.60;8.27;;;;;;;10.19;100.00;100509.16;7394320;19;20406;-57
2022/06/10 01:56:56;;;;;;;16.10;8.80;;;;;;;10.20;100.00;100512.63;7388476;19;21032;-57
2022/06/10 01:59:29;;;;;;;20.03;9.37;;;;;;;10.25;100.00;100508.50;7396192;19;20389;-59
2022/06/10 02:02:05;;;;;;;18.17;9.27;;;;;;;10.23;100.00;100507.56;7387599;19;20442;-52
2022/06/10 02:04:38;;;;;;;20.07;10.03;;;;;;;10.21;100.00;100516.97;7394210;19;20933;-57
2022/06/10 02:07:11;;;;;;;18.10;9.10;;;;;;;10.15;100.00;100516.72;7387710;19;20423;-57
2022/06/10 02:09:43;;;;;;;18.20;9.17;;;;;;;10.16;100.00;100516.78;7395507;19;20398;-56
2022/06/10 02:12:17;;;;;;;15.90;10.00;;;;;;;10.18;100.00;100521.97;7387508;19;20427;-54
2022/06/10 02:14:51;;;;;;;17.53;9.13;;;;;;;10.13;100.00;100521.78;7397832;19;20427;-57
2022/06/10 02:17:25;;;;;;;20.13;9.57;;;;;;;10.09;100.00;100525.94;7389756;19;20958;-55
2022/06/10 02:19:58;;;;;;;14.17;9.20;;;;;;;10.12;100.00;100531.22;7395110;19;20387;-59
2022/06/10 02:22:34;;;;;;;18.40;9.50;;;;;;;10.15;100.00;100534.75;7388983;19;20421;-52
2022/06/10 02:25:08;;;;;;;19.90;9.83;;;;;;;10.12;100.00;100536.38;7392866;19;20758;-59
2022/06/10 02:27:41;;;;;;;24.57;9.33;;;;;;;10.16;100.00;100533.94;7387775;19;20434;-59
2022/06/10 02:30:13;;;;;;;18.17;9.67;;;;;;;10.21;100.00;100535.88;7394795;19;20380;-56
2022/06/10 02:32:45;;;;;;;20.93;10.10;;;;;;;10.23;100.00;100534.25;7386100;19;20418;-56
2022/06/10 02:35:17;;;;;;;19.20;9.57;;;;;;;10.18;100.00;100532.28;7393740;19;20468;-57
2022/06/10 02:37:51;;;;;;;16.33;9.60;;;;;;;10.09;100.00;100531.09;7387369;19;20490;-57
2022/06/10 02:40:25;;;;;;;22.83;9.70;;;;;;;10.08;100.00;100536.19;7394133;19;20387;-59
2022/06/10 02:43:01;;;;;;;19.60;9.43;;;;;;;10.05;100.00;100544.69;7386250;19;21025;-58
2022/06/10 02:45:35;;;;;;;22.40;11.27;;;;;;;10.07;100.00;100543.06;7394298;19;20404;-58
2022/06/10 02:48:12;;;;;;;19.90;11.13;;;;;;;10.11;100.00;100550.09;7386260;19;20787;-56
2022/06/10 02:50:42;;;;;;;29.47;13.00;;;;;;;10.08;100.00;100556.81;7394096;19;20387;-55
2022/06/10 02:53:12;;;;;;;25.27;11.03;;;;;;;10.08;100.00;100819.75;7383078;19;20423;-58
2022/06/10 02:55:41;;;;;;;21.33;11.00;;;;;;;10.09;100.00;100814.69;7394012;19;20384;-53
2022/06/10 03:01:16;;;;;;;23.63;12.30;;;;;;;10.04;100.00;100818.75;7394200;19;20384;-55
2022/06/10 03:04:06;;;;;;;22.50;10.70;;;;;;;10.06;100.00;100830.00;7392081;19;20441;-54
2022/06/10 03:06:42;;;;;;;19.97;9.63;;;;;;;10.10;100.00;100831.03;7385610;19;20415;-55
2022/06/10 03:09:18;;;;;;;23.10;9.50;;;;;;;10.06;100.00;100845.47;7396294;19;20387;-55
2022/06/10 03:11:56;;;;;;;20.67;11.50;;;;;;;10.00;100.00;100842.59;7385680;19;20418;-56
2022/06/10 03:14:35;;;;;;;21.77;10.50;;;;;;;10.04;100.00;100844.53;7399040;19;20423;-57
2022/06/10 03:17:14;;;;;;;22.60;10.27;;;;;;;9.98;100.00;100860.59;7394036;19;20768;-57
2022/06/10 03:19:55;;;;;;;24.03;10.33;;;;;;;9.93;100.00;100854.34;7401062;19;20396;-60
2022/06/10 03:22:44;;;;;;;18.93;10.17;;;;;;;9.96;100.00;100869.06;7394480;19;20428;-55
2022/06/10 03:25:20;;;;;;;20.47;11.37;;;;;;;10.00;100.00;100870.97;7400383;19;20482;-58
2022/06/10 03:27:58;;;;;;;17.30;9.67;;;;;;;10.00;100.00;100873.53;7393823;19;20406;-55
2022/06/10 03:30:30;;;;;;;20.30;10.73;;;;;;;10.03;100.00;100875.38;7400787;19;20808;-57
2022/06/10 03:33:04;;;;;;;20.57;10.87;;;;;;;10.03;100.00;100870.22;7393349;19;20415;-58
2022/06/10 03:35:39;;;;;;;19.90;11.20;;;;;;;10.03;100.00;100876.28;7401026;19;20398;-57
2022/06/10 03:38:09;;;;;;;20.73;10.43;;;;;;;10.04;100.00;100890.94;7390467;19;20418;-55
2022/06/10 03:40:41;;;;;;;21.30;12.03;;;;;;;10.04;100.00;100888.34;7400318;19;20973;-58
2022/06/10 03:43:15;;;;;;;19.60;11.03;;;;;;;10.05;100.00;100895.25;7392333;19;20419;-53
2022/06/10 03:45:46;;;;;;;20.63;11.47;;;;;;;10.05;100.00;100890.09;7399920;19;20976;-55
2022/06/10 03:48:18;;;;;;;25.40;12.10;;;;;;;10.05;100.00;100895.25;7392564;19;20435;-57
2022/06/10 03:50:51;;;;;;;27.10;12.40;;;;;;;10.12;100.00;100894.72;7400374;19;20818;-54
2022/06/10 03:53:26;;;;;;;22.90;11.97;;;;;;;10.14;100.00;100894.81;7391950;19;20419;-57
2022/06/10 03:55:56;;;;;;;20.97;11.73;;;;;;;10.19;100.00;100902.75;7399772;19;20723;-55
2022/06/10 03:58:25;;;;;;;25.17;10.50;;;;;;;10.18;100.00;100906.13;7399054;19;20426;-54
2022/06/10 04:00:59;;;;;;;28.03;12.93;;;;;;;10.22;100.00;100913.22;7396975;19;20795;-54
2022/06/10 04:03:29;;;;;;;28.27;11.30;;;;;;;10.20;100.00;100915.72;7397467;19;20777;-58
2022/06/10 04:06:01;;;;;;;21.53;10.87;;;;;;;10.25;100.00;100918.50;7401874;19;20405;-55
2022/06/10 04:08:51;;;;;;;16.97;10.37;;;;;;;10.31;100.00;100917.91;7397751;19;20442;-57
2022/06/10 04:11:21;;;;;;;16.80;10.27;;;;;;;10.37;100.00;100923.34;7389218;19;20432;-58
2022/06/10 04:13:51;;;;;;;22.87;11.70;;;;;;;10.43;100.00;100935.66;7401828;19;20430;-57
2022/06/10 04:16:20;;;;;;;26.23;10.83;;;;;;;10.47;100.00;100937.56;7393086;19;20431;-57
2022/06/10 04:18:50;;;;;;;21.97;11.63;;;;;;;10.55;100.00;100946.53;7399255;19;20410;-57
2022/06/10 04:21:22;;;;;;;21.60;10.77;;;;;;;10.64;100.00;100946.97;7394503;19;20376;-57
2022/06/10 04:23:52;;;;;;;28.27;11.33;;;;;;;10.72;100.00;100952.44;7395544;19;20415;-58
2022/06/10 04:26:22;;;;;;;19.63;10.60;;;;;;;10.82;100.00;100952.84;7389890;19;20471;-55
2022/06/10 04:28:52;;;;;;;21.80;11.23;;;;;;;10.88;100.00;100959.16;7397958;19;20392;-56
2022/06/10 04:31:22;;;;;;;28.63;11.77;;;;;;;11.00;100.00;100958.81;7388528;19;20412;-59
2022/06/10 04:33:51;;;;;;;20.07;10.70;;;;;;;11.05;100.00;100962.50;7396212;19;20428;-57
2022/06/10 04:36:24;;;;;;;21.40;9.60;;;;;;;11.08;100.00;100967.78;7392014;19;20831;-55
2022/06/10 04:38:54;;;;;;;15.30;9.27;;;;;;;11.15;100.00;100971.50;7398613;19;20392;-54
2022/06/10 04:41:24;;;;;;;19.63;9.43;;;;;;;11.23;100.00;100976.13;7391645;19;20986;-58
2022/06/10 04:43:53;;;;;;;21.13;9.93;;;;;;;11.29;100.00;100969.50;7395834;19;20950;-55
2022/06/10 04:46:27;;;;;;;27.50;10.00;;;;;;;11.33;100.00;100973.09;7392254;19;20975;-59
2022/06/10 04:48:59;;;;;;;22.87;9.87;;;;;;;11.43;100.00;100970.09;7397204;19;20380;-56
2022/06/10 04:51:31;;;;;;;19.63;9.33;;;;;;;11.47;100.00;100971.97;7392432;19;20764;-57
2022/06/10 04:54:01;;;;;;;15.73;8.90;;;;;;;11.52;100.00;100972.16;7396035;19;20778;-57
2022/06/10 04:56:30;;;;;;;15.23;7.90;;;;;;;11.59;100.00;100979.34;7388347;19;20420;-57
2022/06/10 04:59:00;;;;;;;19.57;8.43;;;;;;;11.66;100.00;100977.00;7397763;19;20388;-54
2022/06/10 05:01:30;;;;;;;19.27;8.43;;;;;;;11.71;100.00;100981.56;7388897;19;20407;-56
2022/06/10 05:04:00;;;;;;;17.03;8.00;;;;;;;11.80;100.00;100975.00;7395670;19;20502;-56
2022/06/10 05:06:32;;;;;;;16.87;8.33;;;;;;;11.86;100.00;100977.84;7390206;19;20406;-59
2022/06/10 05:09:03;;;;;;;16.63;7.97;;;;;;;11.93;100.00;100974.66;7396617;19;20391;-58
2022/06/10 05:11:32;;;;;;;14.70;8.20;;;;;;;11.96;100.00;100981.66;7388441;19;20414;-55
2022/06/10 05:14:02;;;;;;;19.10;7.37;;;;;;;12.02;100.00;100977.59;7395946;19;20900;-57
2022/06/10 05:16:32;;;;;;;16.60;6.70;;;;;;;12.11;100.00;100974.53;7388351;19;20398;-54
2022/06/10 05:19:01;;;;;;;18.17;7.60;;;;;;;12.18;100.00;100982.53;7401342;19;20416;-56
2022/06/10 05:21:34;;;;;;;19.43;7.40;;;;;;;12.26;100.00;100971.66;7371547;19;20413;-57
2022/06/10 05:24:04;;;;;;;14.17;5.87;;;;;;;12.35;100.00;100965.09;7394033;19;20427;-56
2022/06/10 05:26:34;;;;;;;16.60;6.50;;;;;;;12.44;100.00;100965.41;7390195;19;20434;-54
2022/06/10 05:29:04;;;;;;;10.43;6.00;;;;;;;12.52;100.00;100958.81;7396045;19;20385;-54
2022/06/10 05:31:34;;;;;;;18.63;6.47;;;;;;;12.62;100.00;100956.56;7388652;19;20957;-57
2022/06/10 05:36:50;;;;;;;44.20;25.37;;;;;;;13.02;100.00;100939.00;7386547;19;20775;-56
2022/06/10 05:39:19;;;;;;;12.43;5.13;;;;;;;13.08;100.00;100934.88;7396439;19;20807;-58
2022/06/10 05:44:39;;;;;;;13.13;4.90;;;;;;;13.12;100.00;100898.75;7393761;19;21026;-55
2022/06/10 05:47:10;;;;;;;11.30;5.10;;;;;;;13.21;100.00;100893.84;7389993;19;20415;-54
2022/06/10 05:49:42;;;;;;;8.60;3.27;;;;;;;13.23;100.00;100866.31;7395555;19;20387;-57
2022/06/10 05:52:15;;;;;;;8.33;3.70;;;;;;;13.32;100.00;100830.31;7389275;19;20939;-59
2022/06/10 05:54:47;;;;;;;13.47;3.60;;;;;;;13.45;100.00;100808.28;7394261;19;20449;-56
2022/06/10 05:57:17;;;;;;;46.43;26.63;;;;;;;13.64;100.00;100785.50;7389045;19;20487;-54
2022/06/10 05:59:49;;;;;;;7.90;3.43;;;;;;;13.71;100.00;100760.66;7394832;19;20381;-58
2022/06/10 06:02:19;;;;;;;11.70;3.37;;;;;;;13.79;100.00;100750.50;7387387;19;20423;-58
2022/06/10 06:04:49;;;;;;;12.97;3.23;;;;;;;13.87;100.00;100731.72;7397885;19;20423;-55
2022/06/10 06:07:23;;;;;;;12.37;4.67;;;;;;;13.97;100.00;100711.22;7389915;19;20452;-58
2022/06/10 06:09:54;;;;;;;12.20;3.33;;;;;;;13.97;100.00;100633.41;7394318;19;20379;-58
2022/06/10 06:12:24;;;;;;;14.13;3.27;;;;;;;14.08;100.00;100606.03;7384091;19;20504;-58
2022/06/10 06:14:54;;;;;;;10.60;2.60;;;;;;;14.11;100.00;100532.59;7393429;19;20417;-59
2022/06/10 06:17:24;;;;;;;11.80;2.67;;;;;;;14.15;100.00;100431.53;7388635;19;21306;-57
2022/06/10 06:19:53;;;;;;;9.53;2.70;;;;;;;14.29;100.00;100386.84;7394697;19;20465;-59
2022/06/10 06:22:25;;;;;;;6.50;2.70;;;;;;;14.41;100.00;100537.59;7388348;19;20967;-58
2022/06/10 06:24:55;;;;;;;9.13;2.23;;;;;;;14.51;100.00;100549.06;7393245;19;20422;-57
2022/06/10 06:27:25;;;;;;;12.20;2.87;;;;;;;14.63;100.00;100543.28;7389078;19;20498;-52
2022/06/10 06:29:55;;;;;;;7.80;1.57;;;;;;;14.74;100.00;100564.31;7394020;19;21124;-56
2022/06/10 06:32:25;;;;;;;4.73;1.80;;;;;;;14.77;100.00;100569.56;7384442;19;20706;-54
2022/06/10 06:34:54;;;;;;;10.00;2.50;;;;;;;14.90;100.00;100567.22;7392792;19;20516;-55
2022/06/10 06:37:27;;;;;;;9.67;2.67;;;;;;;14.94;100.00;100564.75;7388971;19;20490;-56
2022/06/10 06:39:56;;;;;;;8.47;2.20;;;;;;;15.00;100.00;100574.38;7394332;19;20412;-55
2022/06/10 06:42:26;;;;;;;8.17;2.37;;;;;;;15.11;100.00;100582.38;7387902;19;20777;-53
2022/06/10 06:44:56;;;;;;;7.80;2.10;;;;;;;15.24;100.00;100588.72;7392134;19;20499;-55
2022/06/10 06:47:46;;;;;;;6.40;2.20;;;;;;;15.21;100.00;100588.66;7386350;19;20413;-56
2022/06/10 06:50:18;;;;;;;5.27;1.87;;;;;;;15.34;100.00;100600.19;7393060;19;20402;-57
2022/06/10 06:52:50;;;;;;;9.03;2.10;;;;;;;15.49;100.00;100594.41;7387123;19;20440;-53
2022/06/10 06:55:20;;;;;;;10.63;2.30;;;;;;;15.60;100.00;100607.59;7394077;19;20388;-59
2022/06/10 06:57:51;;;;;;;8.80;2.00;;;;;;;15.64;100.00;100615.47;7386638;19;20427;-59
2022/06/10 07:00:22;;;;;;;7.33;1.80;;;;;;;15.68;100.00;100621.59;7393690;19;20396;-58
2022/06/10 07:02:51;;;;;;;9.70;2.33;;;;;;;15.75;100.00;100638.22;7381923;19;20929;-58
2022/06/10 07:05:21;;;;;;;6.70;1.77;;;;;;;15.83;100.00;100636.63;7393943;19;20986;-56
2022/06/10 07:07:54;;;;;;;8.27;2.50;;;;;;;16.00;100.00;100634.34;7386395;19;20416;-55
2022/06/10 07:10:24;;;;;;;8.90;3.27;;;;;;;16.20;100.00;100641.59;7392822;19;20376;-57
2022/06/10 07:12:54;;;;;;;5.53;1.50;;;;;;;16.06;100.00;100650.06;7386176;19;20837;-57
2022/06/10 07:15:25;;;;;;;10.33;2.07;;;;;;;16.04;100.00;100661.28;7393483;19;20402;-54
2022/06/10 07:17:55;;;;;;;9.00;1.90;;;;;;;16.30;100.00;100664.34;7388305;19;21019;-57
2022/06/10 07:20:27;;;;;;;7.03;1.80;;;;;;;16.40;100.00;100665.38;7393221;19;20508;-58
2022/06/10 07:23:00;;;;;;;8.33;1.90;;;;;;;16.26;100.00;100683.34;7386493;19;20971;-56
2022/06/10 07:25:31;;;;;;;6.93;2.10;;;;;;;16.28;100.00;100692.09;7393407;19;20403;-56
2022/06/10 07:28:07;;;;;;;8.37;1.70;;;;;;;16.37;100.00;100709.59;7386275;19;20417;-56
2022/06/10 07:30:38;;;;;;;6.90;2.10;;;;;;;16.40;100.00;100716.59;7392331;19;20383;-56
2022/06/10 07:33:08;;;;;;;16.10;2.70;;;;;;;16.55;100.00;100727.25;7387031;19;20437;-58
2022/06/10 07:35:38;;;;;;;6.27;2.23;;;;;;;16.46;100.00;100737.53;7393054;19;20400;-59
2022/06/10 07:38:14;;;;;;;6.07;1.67;;;;;;;16.46;100.00;100737.53;7384570;19;20422;-55
2022/06/10 07:43:45;;;;;;;11.13;2.00;;;;;;;16.52;100.00;100748.03;7390469;19;20429;-55
2022/06/10 07:46:18;;;;;;;9.23;1.90;;;;;;;16.56;100.00;100749.81;7386843;19;20931;-57
2022/06/10 07:48:48;;;;;;;6.70;1.97;;;;;;;16.60;100.00;100756.84;7392279;19;20389;-57
2022/06/10 07:51:19;;;;;;;5.23;1.53;;;;;;;16.80;100.00;100753.69;7383945;19;20406;-56
2022/06/10 07:53:52;;;;;;;6.77;1.50;;;;;;;16.83;100.00;100747.66;7390785;19;20964;-57
2022/06/10 07:56:22;;;;;;;5.37;1.73;;;;;;;16.96;100.00;100748.72;7385715;19;20587;-57
2022/06/10 07:58:57;;;;;;;6.37;1.80;;;;;;;16.85;100.00;100752.03;7396976;19;20422;-56
2022/06/10 08:01:27;;;;;;;6.13;2.13;;;;;;;16.89;100.00;100747.75;7390599;19;20435;-56
2022/06/10 08:03:56;;;;;;;8.73;3.43;;;;;;;17.01;100.00;100752.28;7401669;19;20494;-56
2022/06/10 08:06:28;;;;;;;6.27;1.73;;;;;;;17.17;100.00;100747.34;7388951;19;20439;-59
2022/06/10 08:09:00;;;;;;;7.77;2.20;;;;;;;17.31;100.00;100748.38;7399197;19;20391;-55
2022/06/10 08:11:30;;;;;;;6.63;1.90;;;;;;;17.24;100.00;100744.81;7389640;19;20406;-58
2022/06/10 08:14:00;;;;;;;7.33;2.00;;;;;;;17.21;100.00;100744.78;7397288;19;20437;-55
2022/06/10 08:16:29;;;;;;;9.53;2.23;;;;;;;17.36;100.00;100743.22;7393656;19;20434;-57
2022/06/10 08:18:59;;;;;;;12.33;2.27;;;;;;;17.53;100.00;100740.84;7401522;19;20400;-58
2022/06/10 08:24:14;;;;;;;7.13;1.90;;;;;;;17.48;100.00;100743.41;7397841;19;20410;-55
2022/06/10 08:26:44;;;;;;;7.00;2.47;;;;;;;17.52;100.00;100806.91;7390848;19;20413;-54
2022/06/10 08:29:19;;;;;;;4.70;1.67;;;;;;;17.65;100.00;100808.81;7396772;19;20423;-54
2022/06/10 08:31:49;;;;;;;11.77;3.57;;;;;;;17.75;100.00;100817.63;7389991;19;20440;-58
2022/06/10 08:34:18;;;;;;;28.37;8.60;;;;;;;17.83;100.00;100812.53;7396445;19;20430;-59
2022/06/10 08:36:48;;;;;;;11.63;3.17;;;;;;;17.84;100.00;100824.72;7392851;19;20443;-54
2022/06/10 08:39:20;;;;;;;17.50;4.93;;;;;;;17.91;100.00;100805.69;7398120;19;20476;-52
2022/06/10 08:42:05;;;;;;;29.93;14.73;;;;;;;17.93;100.00;100809.19;7391434;19;20519;-58
2022/06/10 08:44:39;;;;;;;24.97;8.27;;;;;;;17.92;100.00;100828.31;7397489;19;20517;-57
2022/06/10 08:47:34;;;;;;;11.70;3.03;;;;;;;17.92;100.00;100854.41;7391549;19;20818;-57
2022/06/10 08:50:15;;;;;;;12.40;4.20;;;;;;;17.95;100.00;100854.44;7398750;19;20383;-55
2022/06/10 08:52:49;;;;;;;12.47;3.00;;;;;;;17.89;100.00;100836.09;7390576;19;20533;-56
2022/06/10 08:55:35;;;;;;;8.20;1.90;;;;;;;18.18;100.00;100833.00;7397669;19;20387;-57
2022/06/10 08:58:14;;;;;;;7.17;1.80;;;;;;;18.39;100.00;100848.88;7391177;19;20429;-59
2022/06/10 09:00:44;;;;;;;11.87;3.70;;;;;;;18.61;100.00;100855.22;7397753;19;20375;-60
2022/06/10 09:03:18;;;;;;;6.87;2.20;;;;;;;18.85;100.00;100862.41;7389124;19;20973;-54
2022/06/10 09:05:51;;;;;;;6.03;2.30;;;;;;;18.56;100.00;100883.91;7397194;19;20391;-58
2022/06/10 09:08:25;;;;;;;11.23;3.20;;;;;;;18.38;100.00;100874.13;7385991;19;20796;-59
2022/06/10 09:10:59;;;;;;;7.70;1.97;;;;;;;18.51;100.00;100869.03;7396119;19;20956;-58
2022/06/10 09:13:38;;;;;;;11.43;3.70;;;;;;;18.82;100.00;100874.59;7393728;19;20434;-56
2022/06/10 09:16:12;;;;;;;13.80;4.63;;;;;;;18.63;100.00;100892.69;7390794;19;20439;-59
2022/06/10 09:18:49;;;;;;;29.03;9.30;;;;;;;18.90;100.00;100883.38;7396678;19;20440;-60
2022/06/10 09:21:24;;;;;;;12.50;6.20;;;;;;;18.76;100.00;100891.06;7389279;19;20386;-58
2022/06/10 09:23:55;;;;;;;10.87;3.50;;;;;;;18.20;100.00;100899.16;7395007;19;20490;-59
2022/06/10 09:26:34;;;;;;;12.53;3.93;;;;;;;18.31;100.00;100880.16;7389269;19;21012;-59
2022/06/10 09:29:04;;;;;;;20.60;4.97;;;;;;;18.25;100.00;100878.31;7398713;19;20403;-58
2022/06/10 09:31:41;;;;;;;19.00;7.40;;;;;;;18.48;100.00;100891.69;7390066;19;20478;-58
2022/06/10 09:34:25;;;;;;;16.73;6.17;;;;;;;18.72;100.00;100894.53;7394067;19;20505;-56
2022/06/10 09:37:00;;;;;;;7.77;3.03;;;;;;;19.01;100.00;100894.81;7389510;19;20445;-59
2022/06/10 09:42:35;;;;;;;9.87;3.03;;;;;;;18.65;100.00;100927.53;7389094;19;20426;-57
2022/06/10 09:45:11;;;;;;;11.07;3.00;;;;;;;18.46;100.00;100914.28;7393320;19;20946;-59
2022/06/10 09:47:55;;;;;;;9.90;2.97;;;;;;;18.35;100.00;100921.09;7390809;19;20421;-59
2022/06/10 09:50:31;;;;;;;14.87;4.50;;;;;;;18.54;100.00;100919.59;7395966;19;20390;-54
2022/06/10 09:53:22;;;;;;;18.77;5.17;;;;;;;18.86;100.00;100946.91;7387614;19;20796;-59
2022/06/10 09:56:11;;;;;;;13.40;4.13;;;;;;;18.82;100.00;100932.94;7395504;19;20384;-56
2022/06/10 09:59:03;;;;;;;9.90;2.40;;;;;;;18.62;100.00;100927.53;7393035;19;20446;-59
2022/06/10 10:01:38;;;;;;;15.23;5.10;;;;;;;18.59;100.00;100940.53;7389269;19;20418;-57
2022/06/10 10:04:28;;;;;;;12.03;4.20;;;;;;;18.76;100.00;100933.75;7394292;19;20447;-55
2022/06/10 10:07:01;;;;;;;10.77;3.47;;;;;;;18.83;100.00;100944.28;7386335;19;20489;-59
2022/06/10 10:09:41;;;;;;;14.03;4.70;;;;;;;19.12;100.00;100967.28;7395157;19;20390;-58
2022/06/10 10:12:18;;;;;;;11.87;3.90;;;;;;;19.60;100.00;100979.88;7386805;19;20514;-56
2022/06/10 10:14:58;;;;;;;14.60;5.60;;;;;;;19.81;100.00;100985.28;7394004;19;20461;-56
2022/06/10 10:17:48;;;;;;;6.80;2.30;;;;;;;20.26;100.00;101018.75;7388553;19;20419;-58
2022/06/10 10:20:24;;;;;;;15.87;4.90;;;;;;;19.88;100.00;101084.81;7395060;19;20402;-57
2022/06/10 10:23:13;;;;;;;16.87;3.63;;;;;;;19.67;100.00;101105.56;7387184;19;20785;-57
2022/06/10 10:25:44;;;;;;;7.47;2.83;;;;;;;20.18;100.00;101078.97;7394719;19;20988;-56
2022/06/10 10:28:19;;;;;;;8.27;3.27;;;;;;;20.19;100.00;101129.56;7389680;19;20435;-57
2022/06/10 10:30:57;;;;;;;9.90;3.13;;;;;;;19.92;100.00;101133.69;7394654;19;20390;-59
2022/06/10 10:33:27;;;;;;;11.90;4.07;;;;;;;19.77;100.00;101088.19;7391534;19;20437;-58
2022/06/10 10:35:59;;;;;;;10.20;2.90;;;;;;;19.75;100.00;101094.28;7394544;19;20476;-52
2022/06/10 10:38:37;;;;;;;16.80;4.30;;;;;;;20.08;100.00;101082.38;7392371;19;20419;-59
2022/06/10 10:41:19;;;;;;;5.90;3.30;;;;;;;20.23;100.00;101110.41;7387971;19;20383;-59
2022/06/10 10:43:51;;;;;;;11.60;3.63;;;;;;;20.12;100.00;101083.25;7392579;19;20519;-55
2022/06/10 10:46:36;;;;;;;27.27;8.70;;;;;;;19.68;100.00;101080.25;7388935;19;20742;-58
2022/06/10 10:49:20;;;;;;;7.57;2.73;;;;;;;19.41;100.00;101073.91;7398322;19;20411;-55
2022/06/10 10:51:51;;;;;;;11.60;4.70;;;;;;;19.50;100.00;101089.72;7381521;19;20407;-56
2022/06/10 10:54:26;;;;;;;9.00;2.80;;;;;;;19.75;100.00;101089.06;7392144;19;20570;-57
2022/06/10 10:56:56;;;;;;;10.17;3.20;;;;;;;20.25;100.00;101100.81;7382572;19;20425;-54
2022/06/10 10:59:33;;;;;;;7.60;2.53;;;;;;;19.98;100.00;101117.22;7393563;19;20391;-55
2022/06/10 11:02:33;;;;;;;8.17;3.13;;;;;;;19.94;100.00;101119.75;7384463;19;20753;-57
2022/06/10 11:05:22;;;;;;;5.10;2.27;;;;;;;20.17;100.00;101116.50;7394011;19;20462;-57
2022/06/10 11:08:19;;;;;;;17.87;3.97;;;;;;;20.35;100.00;101149.78;7381545;19;20411;-59
2022/06/10 11:11:02;;;;;;;13.87;3.17;;;;;;;20.35;100.00;101134.06;7393628;19;20383;-56
2022/06/10 11:13:37;;;;;;;7.90;2.53;;;;;;;20.28;100.00;101152.34;7390193;19;20411;-58
2022/06/10 11:16:42;;;;;;;9.90;2.90;;;;;;;20.10;100.00;101144.38;7386336;19;20407;-57
2022/06/10 11:19:40;;;;;;;6.87;2.30;;;;;;;19.98;100.00;101144.25;7392578;19;20473;-56
2022/06/10 11:22:20;;;;;;;16.70;6.00;;;;;;;19.86;100.00;101155.47;7385687;19;20489;-56
2022/06/10 11:24:55;;;;;;;11.20;4.10;;;;;;;19.88;100.00;101176.44;7390831;19;20411;-57
2022/06/10 11:27:32;;;;;;;5.90;2.40;;;;;;;20.15;100.00;101164.50;7384063;19;20419;-57
2022/06/10 11:30:05;;;;;;;7.77;2.70;;;;;;;20.24;100.00;101188.13;7392423;19;20387;-58
2022/06/10 11:32:39;;;;;;;8.00;2.17;;;;;;;20.05;100.00;101190.56;7384310;19;20449;-58
2022/06/10 11:35:27;;;;;;;18.10;3.57;;;;;;;20.33;100.00;101172.50;7399522;19;20467;-55
2022/06/10 11:37:59;;;;;;;6.77;2.50;;;;;;;20.52;100.00;101170.00;7392341;19;20415;-58
2022/06/10 11:40:31;;;;;;;7.53;3.20;;;;;;;20.48;100.00;101170.84;7400134;19;20384;-56
2022/06/10 11:43:04;;;;;;;8.23;2.60;;;;;;;20.54;100.00;101191.84;7392205;19;20419;-55
2022/06/10 11:45:39;;;;;;;10.60;2.73;;;;;;;20.72;100.00;101191.09;7399695;19;20760;-56
2022/06/10 11:48:26;;;;;;;6.13;2.30;;;;;;;20.83;100.00;101195.53;7394400;19;21004;-57
2022/06/10 11:51:01;;;;;;;12.00;3.20;;;;;;;21.03;100.00;101207.03;7399922;19;20403;-58
2022/06/10 11:53:42;;;;;;;8.40;3.10;;;;;;;20.63;100.00;101181.41;7396731;19;20477;-58
2022/06/10 12:01:47;;;;;;;13.00;3.50;;;;;;;20.55;100.00;101183.13;7392362;19;20775;-56
2022/06/10 12:04:21;;;;;;;14.77;3.87;;;;;;;20.89;100.00;101175.53;7397357;19;20945;-58